CYJT

Details ICAO CYJT (YJT)
Name STEPHENVILLE
Region Canada
Timezone America/St_Johns (UTC-2.5)
Plans Departing 20
Arriving 20
Stats Elevation 80 ft / 24 m (AMSL)
Location 48.541811° -58.551488°
Runways 2
Magnetic Variation 18.844° W
Sunrise 2018-05-27 08:01:57 UTC / 2018-05-27 05:31:57 Local
Sunset 2018-05-27 23:43:42 UTC / 2018-05-27 21:13:42 Local
Advertisement - Login to hide

Runways

ID Width Length Bearing (true) Bearing (mag) Surface Threshold Offset Overrun Length
02 150 ft / 46 m 3,770 ft / 1,149 m 355.50° 14.34° Asphalt 0 ft / 0 m 0 ft / 0 m
09 200 ft / 61 m 9,970 ft / 3,039 m 71.61° 90.45° Asphalt 0 ft / 0 m 1,000 ft / 305 m
20 150 ft / 46 m 3,770 ft / 1,149 m 175.50° 194.34° Asphalt 0 ft / 0 m 0 ft / 0 m
27 200 ft / 61 m 9,970 ft / 3,039 m 251.64° 270.48° Asphalt 0 ft / 0 m 1,000 ft / 305 m

Map

Weather


0- 5 10 15 20 25 30 35+ Temperature / ° C

Clouds and Precipitation
Forecast for 2018-05-28 00:00 UTC. Updated 2 hours ago

Ground ~20,000 ft ~40,000 ft Winds

METAR

Not found

TAF

TAF AMD CYJT 280031Z 2800/2824 24007KT P6SM BKN020 TEMPO 2800/2809 SCT020 PROB30 2802/2809 1/2SM FG FM280900 VRB03KT P6SM SKC FM281500 21010KT P6SM SCT180 BECMG 2818/2820 19015G25KT RMK NXT FCST BY 280600Z
Warning: Do not use this data for real-world aviation or navigation. No guarantee of current accuracy is given.